Time;durP1;ratioP1;P1;durP2;ratioP2;P2;SDS_P1;SDS_P2;PMS_P1;PMS_P2;Temp;Humidity;BMP_temperature;BMP_pressure;BME280_temperature;BME280_humidity;BME280_pressure;Samples;Min_cycle;Max_cycle;Signal;HPM_P1;HPM_P2
2022/09/23 00:01:10;;;;;;;;;;;;;;;12.18;60.07;101439.66;5093603;28;19920;-75
2022/09/23 00:03:37;;;;;;;;;;;;;;;12.15;60.32;101435.38;5088208;28;20352;-75
2022/09/23 00:06:06;;;;;;;;;;;;;;;12.16;60.33;101428.38;5074173;28;19981;-75
2022/09/23 00:08:32;;;;;;;;;;;;;;;12.21;60.21;101430.06;5095055;28;19928;-76
2022/09/23 00:11:02;;;;;;;;;;;;;;;12.16;59.23;101431.88;5093983;28;20560;-75
2022/09/23 00:13:27;;;;;;;;;;;;;;;12.03;61.00;101430.38;5086507;28;21427;-75
2022/09/23 00:15:53;;;;;;;;;;;;;;;12.08;60.37;101423.31;5089255;28;20338;-75
2022/09/23 00:18:19;;;;;;;;;;;;;;;12.00;60.61;101428.69;5097488;28;19950;-75
2022/09/23 00:20:44;;;;;;;;;;;;;;;12.09;60.52;101422.44;5094573;28;20407;-75
2022/09/23 00:23:10;;;;;;;;;;;;;;;12.21;60.68;101424.00;5084817;28;19916;-75
2022/09/23 00:25:35;;;;;;;;;;;;;;;12.13;60.27;101410.25;5074387;28;19920;-75
2022/09/23 00:28:02;;;;;;;;;;;;;;;12.04;60.26;101412.09;5072402;28;19935;-75
2022/09/23 00:30:28;;;;;;;;;;;;;;;12.05;60.12;101411.22;5090465;28;19947;-75
2022/09/23 00:32:55;;;;;;;;;;;;;;;12.06;60.12;101410.34;5097905;28;20329;-75
2022/09/23 00:35:21;;;;;;;;;;;;;;;12.10;60.13;101413.72;5084814;28;19969;-75
2022/09/23 00:37:46;;;;;;;;;;;;;;;12.05;60.00;101406.00;5072056;28;19920;-75
2022/09/23 00:40:11;;;;;;;;;;;;;;;12.08;60.06;101403.34;5098968;28;19988;-76
2022/09/23 00:42:37;;;;;;;;;;;;;;;12.10;59.93;101403.31;5094963;28;19967;-75
2022/09/23 00:45:03;;;;;;;;;;;;;;;12.12;60.54;101401.56;5088501;28;19928;-76
2022/09/23 00:47:31;;;;;;;;;;;;;;;12.04;60.01;101404.28;5078228;28;19923;-75
2022/09/23 00:50:22;;;;;;;;;;;;;;;12.03;60.74;101405.19;5087794;28;19926;-75
2022/09/23 00:52:49;;;;;;;;;;;;;;;11.98;60.09;101391.38;5062381;28;19921;-75
2022/09/23 00:55:16;;;;;;;;;;;;;;;12.03;60.68;101391.31;5050039;28;19962;-75
2022/09/23 00:57:43;;;;;;;;;;;;;;;12.01;60.79;101393.91;5092413;28;19934;-75
2022/09/23 01:00:09;;;;;;;;;;;;;;;12.12;60.61;101393.75;5086098;28;20006;-76
2022/09/23 01:02:36;;;;;;;;;;;;;;;12.10;60.91;101395.50;5089190;28;20008;-75
2022/09/23 01:05:04;;;;;;;;;;;;;;;12.12;60.36;101388.53;5087881;28;19923;-75
2022/09/23 01:07:29;;;;;;;;;;;;;;;12.10;59.36;101388.56;5060853;28;19920;-75
2022/09/23 01:09:56;;;;;;;;;;;;;;;12.09;60.38;101383.38;5097397;28;19931;-75
2022/09/23 01:12:41;;;;;;;;;;;;;;;12.03;60.83;101383.50;5089753;28;19932;-76
2022/09/23 01:15:07;;;;;;;;;;;;;;;11.97;60.40;101383.59;5044843;28;19924;-75
2022/09/23 01:17:35;;;;;;;;;;;;;;;11.94;60.09;101383.66;5092110;28;19923;-75
2022/09/23 01:20:20;;;;;;;;;;;;;;;12.01;61.14;101380.91;5090090;28;19990;-75
2022/09/23 01:23:04;;;;;;;;;;;;;;;11.94;60.92;101378.44;5066935;28;20073;-75
2022/09/23 01:25:39;;;;;;;;;;;;;;;12.00;60.70;101383.53;5092168;28;19916;-76
2022/09/23 01:28:37;;;;;;;;;;;;;;;12.03;59.95;101373.06;5092367;28;19927;-75
2022/09/23 01:31:02;;;;;;;;;;;;;;;12.03;60.65;101371.34;5045291;28;19966;-75
2022/09/23 01:33:47;;;;;;;;;;;;;;;11.96;60.10;101366.25;5094461;28;19969;-75
2022/09/23 01:36:24;;;;;;;;;;;;;;;12.04;60.46;101366.97;5082324;28;20306;-75
2022/09/23 01:38:52;;;;;;;;;;;;;;;12.00;60.23;101367.91;5090654;28;20392;-75
2022/09/23 01:41:28;;;;;;;;;;;;;;;12.03;60.22;101375.69;5091471;28;19912;-75
2022/09/23 01:43:54;;;;;;;;;;;;;;;12.04;59.38;101375.63;5068116;28;19969;-75
2022/09/23 01:46:21;;;;;;;;;;;;;;;12.01;59.46;101378.28;5097239;28;20341;-76
2022/09/23 01:48:50;;;;;;;;;;;;;;;12.02;60.67;101376.56;5091129;28;20018;-75
2022/09/23 01:51:19;;;;;;;;;;;;;;;12.01;59.97;101365.28;5088659;28;19965;-76
2022/09/23 01:53:59;;;;;;;;;;;;;;;11.90;59.94;101367.22;5084973;28;19920;-75
2022/09/23 01:56:27;;;;;;;;;;;;;;;11.95;59.76;101374.94;5092399;28;19919;-75
2022/09/23 01:59:01;;;;;;;;;;;;;;;11.89;60.27;101370.69;5101509;28;19923;-74
2022/09/23 02:01:35;;;;;;;;;;;;;;;11.89;59.69;101370.69;5087938;28;19920;-74
2022/09/23 02:04:08;;;;;;;;;;;;;;;11.91;59.94;101368.06;5090816;28;20337;-74
2022/09/23 02:06:37;;;;;;;;;;;;;;;11.93;60.28;101374.09;5090314;28;19931;-74
2022/09/23 02:09:14;;;;;;;;;;;;;;;11.86;60.16;101365.53;5092185;28;19966;-74
2022/09/23 02:11:42;;;;;;;;;;;;;;;11.85;60.00;101363.84;5089876;28;19920;-74
2022/09/23 02:14:10;;;;;;;;;;;;;;;11.85;60.01;101365.56;5093351;28;19920;-74
2022/09/23 02:16:40;;;;;;;;;;;;;;;11.83;59.38;101364.75;5089763;28;20003;-74
2022/09/23 02:19:08;;;;;;;;;;;;;;;11.78;59.91;101363.94;5095302;28;19934;-74
2022/09/23 02:21:46;;;;;;;;;;;;;;;11.91;60.32;101370.69;5075674;28;19927;-74
2022/09/23 02:24:13;;;;;;;;;;;;;;;11.83;59.95;101368.19;5084500;28;19920;-74
2022/09/23 02:26:51;;;;;;;;;;;;;;;11.85;60.11;101360.38;5090965;28;19969;-74
2022/09/23 02:29:21;;;;;;;;;;;;;;;11.79;60.41;101361.34;5086531;28;20362;-74
2022/09/23 02:31:55;;;;;;;;;;;;;;;11.74;60.56;101354.50;5090665;28;19920;-74
2022/09/23 02:34:39;;;;;;;;;;;;;;;11.74;60.32;101354.50;5092050;28;19924;-74
2022/09/23 02:37:19;;;;;;;;;;;;;;;11.75;60.41;101356.19;5065622;28;19920;-74
2022/09/23 02:39:59;;;;;;;;;;;;;;;11.72;59.53;101353.63;5083817;28;19928;-74
2022/09/23 02:42:30;;;;;;;;;;;;;;;11.69;60.06;101351.94;5086345;28;19935;-74
2022/09/23 02:44:55;;;;;;;;;;;;;;;11.71;60.14;101349.34;5100882;28;19931;-74
2022/09/23 02:47:23;;;;;;;;;;;;;;;11.71;60.35;101344.13;5095379;28;19916;-74
2022/09/23 02:49:49;;;;;;;;;;;;;;;11.74;60.01;101346.69;5086624;28;19997;-74
2022/09/23 02:52:15;;;;;;;;;;;;;;;11.68;59.89;101342.41;5096665;28;19978;-74
2022/09/23 02:54:40;;;;;;;;;;;;;;;11.66;59.62;101335.50;5089881;28;19974;-74
2022/09/23 02:57:07;;;;;;;;;;;;;;;11.74;60.07;101344.09;5085429;28;20014;-74
2022/09/23 02:59:34;;;;;;;;;;;;;;;11.69;60.79;101335.47;5089996;28;19927;-74
2022/09/23 03:02:13;;;;;;;;;;;;;;;11.78;60.64;101343.13;5095154;28;19964;-74
2022/09/23 03:04:50;;;;;;;;;;;;;;;11.70;60.15;101330.25;5092100;28;20003;-74
2022/09/23 03:07:17;;;;;;;;;;;;;;;11.70;60.45;101332.00;5087123;28;19920;-74
2022/09/23 03:09:56;;;;;;;;;;;;;;;11.55;60.27;101327.91;5089160;28;19931;-74
2022/09/23 03:12:34;;;;;;;;;;;;;;;11.57;59.55;101329.59;5077344;28;19922;-74
2022/09/23 03:15:03;;;;;;;;;;;;;;;11.61;60.38;101316.53;5096090;28;19980;-74
2022/09/23 03:17:32;;;;;;;;;;;;;;;11.56;60.12;101321.81;5104394;28;19955;-74
2022/09/23 03:20:01;;;;;;;;;;;;;;;11.62;60.15;101319.13;5092605;28;19920;-74
2022/09/23 03:22:38;;;;;;;;;;;;;;;11.62;59.76;101321.72;5076752;28;19920;-74
2022/09/23 03:25:10;;;;;;;;;;;;;;;11.60;60.16;101315.66;5090203;28;19924;-74
2022/09/23 03:27:36;;;;;;;;;;;;;;;11.50;60.34;101319.31;5090513;28;20407;-74
2022/09/23 03:30:02;;;;;;;;;;;;;;;11.59;60.51;101319.16;5095511;28;20377;-74
2022/09/23 03:32:28;;;;;;;;;;;;;;;11.61;60.08;101319.13;5095830;28;20391;-74
2022/09/23 03:34:56;;;;;;;;;;;;;;;11.64;60.43;101324.28;5091381;28;19916;-74
2022/09/23 03:37:40;;;;;;;;;;;;;;;11.67;60.70;101312.09;5091318;28;20383;-74
2022/09/23 03:40:05;;;;;;;;;;;;;;;11.60;60.25;101312.19;5075495;28;20341;-74
2022/09/23 03:42:32;;;;;;;;;;;;;;;11.54;60.41;101302.75;5095080;28;19916;-74
2022/09/23 03:44:57;;;;;;;;;;;;;;;11.48;60.42;101303.72;5104121;28;19919;-74
2022/09/23 03:47:24;;;;;;;;;;;;;;;11.41;60.68;101309.06;5091783;28;20423;-74
2022/09/23 03:49:50;;;;;;;;;;;;;;;11.48;60.66;101311.53;5103077;28;19916;-74
2022/09/23 03:52:20;;;;;;;;;;;;;;;11.56;60.69;101298.41;5084753;28;19966;-74
2022/09/23 03:54:45;;;;;;;;;;;;;;;11.50;60.21;101301.94;5090172;28;20011;-74
2022/09/23 03:57:11;;;;;;;;;;;;;;;11.41;60.16;101298.66;5093786;28;20053;-74
2022/09/23 03:59:37;;;;;;;;;;;;;;;11.40;60.86;101303.00;5078583;28;19919;-74
2022/09/23 04:02:02;;;;;;;;;;;;;;;11.49;60.15;101297.63;5093874;28;19919;-74
2022/09/23 04:04:28;;;;;;;;;;;;;;;11.39;61.03;101303.88;5086891;28;19951;-74
2022/09/23 04:06:54;;;;;;;;;;;;;;;11.41;60.56;101298.66;5087810;28;19920;-74
2022/09/23 04:09:20;;;;;;;;;;;;;;;11.45;60.92;101295.09;5077491;28;19920;-74
2022/09/23 04:11:47;;;;;;;;;;;;;;;11.45;60.53;101301.16;5088256;28;20611;-74
2022/09/23 04:14:12;;;;;;;;;;;;;;;11.49;60.44;101302.84;5088837;28;19947;-74
2022/09/23 04:16:37;;;;;;;;;;;;;;;11.47;60.16;101303.75;5086677;28;19951;-74
2022/09/23 04:19:02;;;;;;;;;;;;;;;11.28;60.38;101297.13;5089134;28;19949;-74
2022/09/23 04:21:29;;;;;;;;;;;;;;;11.36;60.84;101296.09;5096909;28;19950;-74
2022/09/23 04:23:55;;;;;;;;;;;;;;;11.39;60.35;101301.25;5086614;28;19931;-74
2022/09/23 04:26:20;;;;;;;;;;;;;;;11.34;60.41;101302.22;5092125;28;19915;-74
2022/09/23 04:28:45;;;;;;;;;;;;;;;11.37;60.95;101295.22;5088310;28;19956;-74
2022/09/23 04:31:10;;;;;;;;;;;;;;;11.33;60.80;101285.75;5074695;28;19924;-74
2022/09/23 04:33:36;;;;;;;;;;;;;;;11.34;60.87;101286.63;5091440;28;20011;-74
2022/09/23 04:36:02;;;;;;;;;;;;;;;11.22;60.99;101282.44;5085347;28;19959;-74
2022/09/23 04:38:27;;;;;;;;;;;;;;;11.27;60.58;101277.16;5088092;28;20228;-74
2022/09/23 04:40:52;;;;;;;;;;;;;;;11.18;61.12;101278.16;5077459;28;19940;-74
2022/09/23 04:43:18;;;;;;;;;;;;;;;11.26;60.75;101275.44;5095614;28;20602;-74
2022/09/23 04:45:44;;;;;;;;;;;;;;;11.26;60.56;101271.09;5092096;28;19920;-74
2022/09/23 04:48:10;;;;;;;;;;;;;;;11.20;61.16;101271.22;5075441;28;19920;-74
2022/09/23 04:50:36;;;;;;;;;;;;;;;11.21;60.71;101265.09;5090493;28;20318;-74
2022/09/23 04:53:01;;;;;;;;;;;;;;;11.29;60.11;101271.09;5090633;28;19912;-74
2022/09/23 04:55:27;;;;;;;;;;;;;;;11.16;60.40;101269.53;5088270;28;19935;-74
2022/09/23 04:57:52;;;;;;;;;;;;;;;11.12;60.33;101270.44;5090245;28;19999;-74
2022/09/23 05:00:17;;;;;;;;;;;;;;;11.17;60.22;101273.84;5092915;28;19916;-74
2022/09/23 05:02:44;;;;;;;;;;;;;;;11.24;60.72;101274.59;5062447;28;20042;-74
2022/09/23 05:05:09;;;;;;;;;;;;;;;11.28;60.49;101274.56;5069515;28;20493;-74
2022/09/23 05:07:35;;;;;;;;;;;;;;;11.10;60.54;101268.75;5084047;28;19928;-74
2022/09/23 05:10:00;;;;;;;;;;;;;;;11.17;60.71;101271.25;5088233;28;19927;-74
2022/09/23 05:12:25;;;;;;;;;;;;;;;11.13;60.26;101266.97;5084954;28;19973;-74
2022/09/23 05:14:50;;;;;;;;;;;;;;;11.13;60.53;101266.97;5092508;28;20273;-74
2022/09/23 05:17:16;;;;;;;;;;;;;;;11.07;61.10;101276.59;5093682;28;20292;-74
2022/09/23 05:19:41;;;;;;;;;;;;;;;11.17;60.55;101270.38;5096093;28;19950;-75
2022/09/23 05:22:09;;;;;;;;;;;;;;;11.12;60.88;101264.41;5091588;28;19935;-75
2022/09/23 05:24:34;;;;;;;;;;;;;;;11.01;60.86;101267.16;5089925;28;19920;-75
2022/09/23 05:26:59;;;;;;;;;;;;;;;11.09;60.78;101260.09;5096295;28;19922;-75
2022/09/23 05:29:27;;;;;;;;;;;;;;;11.15;61.21;101259.13;5103084;28;20376;-75
2022/09/23 05:31:53;;;;;;;;;;;;;;;11.12;60.83;101257.44;5096583;28;19920;-75
2022/09/23 05:34:18;;;;;;;;;;;;;;;11.03;61.83;101257.56;5108194;28;20011;-75
2022/09/23 05:36:43;;;;;;;;;;;;;;;11.18;60.88;101259.09;5095047;28;19938;-75
2022/09/23 05:39:09;;;;;;;;;;;;;;;11.28;60.83;101258.09;5097184;28;19927;-75
2022/09/23 05:41:34;;;;;;;;;;;;;;;11.26;61.02;101255.50;5102680;28;20295;-75
2022/09/23 05:44:00;;;;;;;;;;;;;;;11.18;61.46;101257.34;5076393;28;19908;-75
2022/09/23 05:46:26;;;;;;;;;;;;;;;11.20;61.59;101265.13;5078450;28;19924;-75
2022/09/23 05:48:53;;;;;;;;;;;;;;;11.22;61.06;101269.44;5104743;28;19920;-75
2022/09/23 05:51:20;;;;;;;;;;;;;;;11.32;61.10;101268.44;5089742;28;19924;-75
2022/09/23 05:53:46;;;;;;;;;;;;;;;11.07;61.25;101277.47;5083445;28;19924;-75
2022/09/23 05:56:12;;;;;;;;;;;;;;;11.12;61.20;101275.63;5089357;28;19908;-75
2022/09/23 05:58:37;;;;;;;;;;;;;;;11.17;61.28;101279.06;5084161;28;19967;-75
2022/09/23 06:01:13;;;;;;;;;;;;;;;11.20;61.86;101273.81;5087684;28;20399;-75
2022/09/23 06:03:39;;;;;;;;;;;;;;;11.31;61.21;101274.53;5082531;28;19920;-75
2022/09/23 06:06:05;;;;;;;;;;;;;;;11.13;61.27;101272.16;5089323;28;19960;-75
2022/09/23 06:08:32;;;;;;;;;;;;;;;11.26;62.20;101278.91;5094343;28;19967;-75
2022/09/23 06:11:06;;;;;;;;;;;;;;;11.21;62.50;101280.69;5102492;28;19916;-75
2022/09/23 06:13:32;;;;;;;;;;;;;;;11.26;61.61;101278.03;5098501;28;19927;-75
2022/09/23 06:15:57;;;;;;;;;;;;;;;11.35;62.66;101281.41;5085119;28;19920;-75
2022/09/23 06:18:23;;;;;;;;;;;;;;;11.33;62.09;101280.53;5086716;28;19931;-74
2022/09/23 06:20:48;;;;;;;;;;;;;;;11.40;62.07;101278.72;5096099;28;19928;-75
2022/09/23 06:23:13;;;;;;;;;;;;;;;11.42;61.89;101280.41;5093624;28;19927;-75
2022/09/23 06:25:38;;;;;;;;;;;;;;;11.40;61.93;101274.38;5092805;28;19973;-75
2022/09/23 06:28:05;;;;;;;;;;;;;;;11.44;62.27;101273.41;5096468;28;19969;-75
2022/09/23 06:30:30;;;;;;;;;;;;;;;11.45;62.52;101272.53;5098060;28;19923;-75
2022/09/23 06:32:57;;;;;;;;;;;;;;;11.51;63.14;101268.97;5100352;28;19916;-75
2022/09/23 06:35:24;;;;;;;;;;;;;;;11.55;62.27;101268.06;5093955;28;20423;-75
2022/09/23 06:37:49;;;;;;;;;;;;;;;11.57;62.82;101272.34;5094461;28;19927;-75
2022/09/23 06:40:14;;;;;;;;;;;;;;;11.59;62.82;101276.66;5091972;28;19916;-74
2022/09/23 06:42:40;;;;;;;;;;;;;;;11.64;63.04;101273.09;5092809;28;19920;-75
2022/09/23 06:45:05;;;;;;;;;;;;;;;11.69;63.15;101271.28;5095346;28;19926;-74
2022/09/23 06:47:31;;;;;;;;;;;;;;;11.72;62.97;101280.75;5107530;28;19919;-74
2022/09/23 06:49:56;;;;;;;;;;;;;;;11.69;62.95;101276.47;5099361;28;20008;-74
2022/09/23 06:52:21;;;;;;;;;;;;;;;11.65;62.72;101276.56;5092186;28;20372;-74
2022/09/23 06:54:47;;;;;;;;;;;;;;;11.70;63.19;101274.75;5090635;28;19989;-75
2022/09/23 06:57:13;;;;;;;;;;;;;;;11.77;63.15;101268.56;5097103;28;20398;-75
2022/09/23 06:59:38;;;;;;;;;;;;;;;11.72;63.55;101275.56;5094706;28;20419;-75
2022/09/23 07:02:03;;;;;;;;;;;;;;;11.77;62.69;101269.38;5097172;28;20004;-75
2022/09/23 07:04:29;;;;;;;;;;;;;;;11.89;63.15;101278.75;5094042;28;19924;-75
2022/09/23 07:06:54;;;;;;;;;;;;;;;11.77;63.50;101282.41;5098204;28;19924;-75
2022/09/23 07:09:19;;;;;;;;;;;;;;;11.75;63.27;101280.72;5082675;28;19924;-75
2022/09/23 07:11:46;;;;;;;;;;;;;;;11.85;63.42;101288.34;5091747;28;20537;-75
2022/09/23 07:14:11;;;;;;;;;;;;;;;11.89;62.66;101287.38;5083579;28;19923;-75
2022/09/23 07:16:36;;;;;;;;;;;;;;;11.89;63.17;101279.56;5082349;28;20369;-75
2022/09/23 07:19:02;;;;;;;;;;;;;;;11.91;63.79;101282.16;5081612;28;19932;-75
2022/09/23 07:21:27;;;;;;;;;;;;;;;11.95;63.91;101278.59;5104783;28;20014;-74
2022/09/23 07:23:54;;;;;;;;;;;;;;;12.00;63.03;101284.59;5092476;28;19920;-75
2022/09/23 07:26:19;;;;;;;;;;;;;;;12.04;63.91;101284.50;5090988;28;20349;-75
2022/09/23 07:28:44;;;;;;;;;;;;;;;12.08;64.06;101280.09;5101528;28;19995;-75
2022/09/23 07:31:16;;;;;;;;;;;;;;;12.12;64.15;101279.16;5070407;28;19915;-75
2022/09/23 07:33:44;;;;;;;;;;;;;;;12.22;62.88;101270.25;5101113;28;19924;-74
2022/09/23 07:36:14;;;;;;;;;;;;;;;12.30;62.95;101265.78;5092993;28;20002;-74
2022/09/23 07:38:39;;;;;;;;;;;;;;;12.36;61.89;101260.44;5091030;28;19920;-74
2022/09/23 07:41:09;;;;;;;;;;;;;;;12.29;62.21;101273.63;5082361;28;20420;-75
2022/09/23 07:43:36;;;;;;;;;;;;;;;12.31;63.18;101267.47;5089539;28;19951;-74
2022/09/23 07:46:03;;;;;;;;;;;;;;;12.45;62.75;101269.81;5095006;28;19924;-75
2022/09/23 07:48:29;;;;;;;;;;;;;;;12.50;61.76;101267.97;5095854;28;19920;-75
2022/09/23 07:50:54;;;;;;;;;;;;;;;12.59;60.75;101273.03;5099577;28;19927;-77
2022/09/23 07:53:46;;;;;;;;;;;;;;;12.57;59.98;101270.44;5087960;27;20421;-77
2022/09/23 07:56:11;;;;;;;;;;;;;;;12.67;60.06;101263.28;5064463;28;19940;-77
2022/09/23 07:58:36;;;;;;;;;;;;;;;12.70;60.21;101270.19;5063722;28;19925;-77
2022/09/23 08:01:03;;;;;;;;;;;;;;;12.79;60.22;101276.06;5066734;28;19917;-77
2022/09/23 08:03:28;;;;;;;;;;;;;;;12.81;59.96;101273.44;5066804;28;19931;-77
2022/09/23 08:06:01;;;;;;;;;;;;;;;12.80;60.29;101271.69;5068428;28;20315;-77
2022/09/23 08:08:26;;;;;;;;;;;;;;;12.89;60.39;101281.94;5068631;28;20369;-77
2022/09/23 08:10:58;;;;;;;;;;;;;;;12.82;60.18;101275.97;5034851;28;19963;-77
2022/09/23 08:13:23;;;;;;;;;;;;;;;12.88;60.15;101280.19;5039634;28;19925;-77
2022/09/23 08:15:49;;;;;;;;;;;;;;;12.99;59.55;101270.38;5045706;28;19991;-77
2022/09/23 08:18:14;;;;;;;;;;;;;;;13.12;58.69;101264.84;5048948;28;19920;-77
2022/09/23 08:20:46;;;;;;;;;;;;;;;13.12;59.29;101264.84;5056545;28;19924;-77
2022/09/23 08:23:15;;;;;;;;;;;;;;;13.34;63.67;101265.22;5045146;28;19983;-77
2022/09/23 08:25:41;;;;;;;;;;;;;;;13.31;58.35;101254.84;5044684;28;19921;-77
2022/09/23 08:28:07;;;;;;;;;;;;;;;13.27;58.92;101254.94;5044250;28;19968;-77
2022/09/23 08:30:32;;;;;;;;;;;;;;;13.22;59.15;101260.28;5046216;28;19995;-77
2022/09/23 08:32:57;;;;;;;;;;;;;;;13.31;59.33;101260.06;5045907;28;20346;-77
2022/09/23 08:35:23;;;;;;;;;;;;;;;13.29;58.94;101256.63;5041595;28;19928;-77
2022/09/23 08:37:49;;;;;;;;;;;;;;;13.29;59.22;101255.75;5042503;28;19925;-77
2022/09/23 08:40:14;;;;;;;;;;;;;;;13.32;58.98;101253.94;5050974;28;19925;-77
2022/09/23 08:42:42;;;;;;;;;;;;;;;13.30;58.51;101247.03;5055558;28;20291;-77
2022/09/23 08:45:11;;;;;;;;;;;;;;;13.34;58.83;101248.69;5052122;28;19927;-77
2022/09/23 08:47:51;;;;;;;;;;;;;;;13.33;58.13;101247.84;5046377;28;19917;-77
2022/09/23 08:50:20;;;;;;;;;;;;;;;13.38;58.54;101242.47;5044650;28;19955;-77
2022/09/23 08:52:46;;;;;;;;;;;;;;;13.34;59.23;101239.13;5045297;28;20559;-77
2022/09/23 08:55:12;;;;;;;;;;;;;;;13.41;58.64;101243.28;5043404;28;19928;-77
2022/09/23 08:57:37;;;;;;;;;;;;;;;13.49;58.97;101243.94;5044715;28;20000;-77
2022/09/23 09:00:03;;;;;;;;;;;;;;;13.48;59.72;101241.38;5049327;28;19996;-77
2022/09/23 09:02:29;;;;;;;;;;;;;;;13.43;58.93;101243.25;5045208;28;20074;-77
2022/09/23 09:04:57;;;;;;;;;;;;;;;13.47;58.38;101242.25;5031057;28;20381;-77
2022/09/23 09:07:49;;;;;;;;;;;;;;;13.51;59.07;101241.28;5033158;28;20015;-77
2022/09/23 09:10:20;;;;;;;;;;;;;;;13.57;59.33;101243.75;5022929;28;19928;-77
2022/09/23 09:12:46;;;;;;;;;;;;;;;13.61;58.95;101242.78;5024302;28;20287;-77
2022/09/23 09:15:18;;;;;;;;;;;;;;;13.65;60.01;101249.63;5043517;28;20293;-77
2022/09/23 09:17:52;;;;;;;;;;;;;;;13.69;59.14;101243.47;5035225;28;19920;-74
2022/09/23 09:20:22;;;;;;;;;;;;;;;13.64;59.58;101245.31;5032567;28;19924;-76
2022/09/23 09:22:58;;;;;;;;;;;;;;;13.69;59.63;101236.50;5052899;28;19917;-75
2022/09/23 09:25:33;;;;;;;;;;;;;;;13.74;59.27;101231.13;5022964;28;19927;-76
2022/09/23 09:27:59;;;;;;;;;;;;;;;13.80;59.49;101228.38;5036599;28;19964;-75
2022/09/23 09:30:24;;;;;;;;;;;;;;;13.78;59.72;101232.78;5030945;28;20381;-76
2022/09/23 09:33:01;;;;;;;;;;;;;;;13.85;59.34;101229.09;5029479;28;19943;-75
2022/09/23 09:35:37;;;;;;;;;;;;;;;13.87;59.46;101231.66;5031566;28;19917;-75
2022/09/23 09:38:04;;;;;;;;;;;;;;;13.83;58.57;101236.13;5033618;28;20304;-75
2022/09/23 09:40:30;;;;;;;;;;;;;;;13.85;59.18;101233.47;5036181;28;19917;-76
2022/09/23 09:42:55;;;;;;;;;;;;;;;13.79;59.62;101233.66;5035038;28;19921;-77
2022/09/23 09:45:25;;;;;;;;;;;;;;;13.84;60.15;101231.75;5045044;28;19917;-77
2022/09/23 09:47:50;;;;;;;;;;;;;;;13.88;58.96;101220.34;5050159;28;19921;-76
2022/09/23 09:50:35;;;;;;;;;;;;;;;13.95;59.95;101216.63;5055941;28;19928;-77
2022/09/23 09:53:13;;;;;;;;;;;;;;;13.90;59.67;101214.16;5047813;28;19936;-77
2022/09/23 09:55:40;;;;;;;;;;;;;;;13.95;59.82;101212.28;5054822;28;20073;-77
2022/09/23 09:58:05;;;;;;;;;;;;;;;13.90;58.16;101211.56;5050371;28;19967;-78
2022/09/23 10:00:34;;;;;;;;;;;;;;;13.93;59.01;101206.25;5049412;28;20401;-77
2022/09/23 10:03:07;;;;;;;;;;;;;;;13.98;59.41;101206.97;5052434;28;19928;-77
2022/09/23 10:05:41;;;;;;;;;;;;;;;14.08;59.44;101199.75;5060153;28;19916;-77
2022/09/23 10:08:27;;;;;;;;;;;;;;;14.12;59.58;101207.44;5053221;28;19935;-77
2022/09/23 10:11:05;;;;;;;;;;;;;;;14.18;58.39;101204.63;5046407;28;20389;-77
2022/09/23 10:13:31;;;;;;;;;;;;;;;14.17;57.66;101194.25;5049014;28;19928;-77
2022/09/23 10:15:58;;;;;;;;;;;;;;;14.19;58.04;101200.28;5050643;28;20304;-77
2022/09/23 10:18:33;;;;;;;;;;;;;;;14.23;57.53;101197.50;5053142;28;20285;-77
2022/09/23 10:21:19;;;;;;;;;;;;;;;14.24;57.63;101203.59;5050973;28;20270;-77
2022/09/23 10:23:45;;;;;;;;;;;;;;;14.29;58.25;101201.72;5051073;28;19927;-77
2022/09/23 10:26:11;;;;;;;;;;;;;;;14.30;57.93;101200.81;5049447;28;19917;-77
2022/09/23 10:28:37;;;;;;;;;;;;;;;14.28;58.66;101205.25;5047925;28;19923;-77
2022/09/23 10:31:11;;;;;;;;;;;;;;;14.31;58.04;101195.56;5047276;28;20297;-77
2022/09/23 10:33:58;;;;;;;;;;;;;;;14.37;58.68;101196.28;5048843;28;19921;-77
2022/09/23 10:36:24;;;;;;;;;;;;;;;14.38;59.42;101195.38;5048803;28;19955;-77
2022/09/23 10:38:52;;;;;;;;;;;;;;;14.41;58.72;101192.66;5047843;28;19975;-77
2022/09/23 10:47:18;;;;;;;;;;;;;;;14.56;56.54;101185.19;5049019;28;19927;-73
2022/09/23 10:50:02;;;;;;;;;;;;;;;14.59;56.27;101182.50;5050028;28;20007;-73
2022/09/23 10:52:35;;;;;;;;;;;;;;;14.61;55.50;101175.47;5051111;28;20413;-74
2022/09/23 10:55:15;;;;;;;;;;;;;;;14.62;57.69;101182.41;5050118;28;20420;-73
2022/09/23 10:57:43;;;;;;;;;;;;;;;14.66;56.79;101175.31;5048598;28;19917;-73
2022/09/23 11:00:13;;;;;;;;;;;;;;;14.68;54.91;101165.69;5045005;28;19944;-73
2022/09/23 11:02:44;;;;;;;;;;;;;;;14.69;55.85;101176.09;5049703;28;20007;-73
2022/09/23 11:05:25;;;;;;;;;;;;;;;14.69;56.54;101175.22;5049073;28;19924;-73
2022/09/23 11:08:09;;;;;;;;;;;;;;;14.71;56.74;101176.06;5043539;28;20043;-73
2022/09/23 11:10:54;;;;;;;;;;;;;;;14.73;57.21;101175.09;5049556;28;20409;-73
2022/09/23 11:13:39;;;;;;;;;;;;;;;14.74;56.07;101170.72;5046239;28;19956;-73
2022/09/23 11:16:07;;;;;;;;;;;;;;;14.76;55.98;101167.19;5052578;28;20054;-73
2022/09/23 11:18:42;;;;;;;;;;;;;;;14.76;57.49;101156.72;5048462;28;20065;-73
2022/09/23 11:21:26;;;;;;;;;;;;;;;14.82;56.38;101159.16;5053665;28;19975;-73
2022/09/23 11:23:57;;;;;;;;;;;;;;;14.89;52.61;101156.34;5047524;28;19923;-73
2022/09/23 11:26:39;;;;;;;;;;;;;;;14.91;54.01;101144.91;5049795;28;19944;-73
2022/09/23 11:29:23;;;;;;;;;;;;;;;14.90;56.22;101164.13;5026874;28;20301;-73
2022/09/23 11:31:48;;;;;;;;;;;;;;;14.91;55.87;101152.75;5028248;28;19925;-73
2022/09/23 11:34:46;;;;;;;;;;;;;;;14.95;52.78;101138.66;5028699;28;19924;-73
2022/09/23 11:37:18;;;;;;;;;;;;;;;14.96;53.82;101139.50;4983725;28;19921;-73
2022/09/23 11:39:48;;;;;;;;;;;;;;;14.98;53.32;101135.09;5031403;28;19932;-74
2022/09/23 11:42:19;;;;;;;;;;;;;;;15.04;53.34;101138.34;5035641;28;19921;-73
2022/09/23 11:44:48;;;;;;;;;;;;;;;15.06;53.44;101133.94;5026487;28;20564;-73
2022/09/23 11:47:20;;;;;;;;;;;;;;;15.09;51.99;101127.75;5025819;28;19925;-73
2022/09/23 11:49:58;;;;;;;;;;;;;;;15.04;57.29;101134.88;5025978;28;19929;-73
2022/09/23 11:52:23;;;;;;;;;;;;;;;15.04;55.03;101132.25;5028920;28;20012;-74
2022/09/23 11:54:52;;;;;;;;;;;;;;;15.08;53.75;101124.25;5027573;28;20019;-73
2022/09/23 11:57:26;;;;;;;;;;;;;;;15.06;54.77;101126.09;5033902;28;19917;-73
2022/09/23 11:59:55;;;;;;;;;;;;;;;15.05;54.21;101120.88;5019058;28;19967;-73
2022/09/23 12:02:32;;;;;;;;;;;;;;;15.08;54.56;101120.78;5033804;28;20286;-73
2022/09/23 12:05:05;;;;;;;;;;;;;;;15.09;54.56;101115.53;5031011;28;19924;-74
2022/09/23 12:07:55;;;;;;;;;;;;;;;15.15;51.40;101117.94;5031214;28;19921;-73
2022/09/23 12:10:22;;;;;;;;;;;;;;;15.18;52.87;101114.34;5019909;28;19925;-74
2022/09/23 12:12:50;;;;;;;;;;;;;;;15.14;54.24;101107.50;5028864;28;19929;-73
2022/09/23 12:15:23;;;;;;;;;;;;;;;15.20;52.78;101100.28;5007750;28;19979;-73
2022/09/23 12:18:00;;;;;;;;;;;;;;;15.25;52.03;101087.03;5043795;28;20290;-73
2022/09/23 12:20:44;;;;;;;;;;;;;;;15.29;51.80;101088.66;5012619;28;19913;-74
2022/09/23 12:23:12;;;;;;;;;;;;;;;15.32;50.17;101083.31;5035396;28;19931;-73
2022/09/23 12:26:09;;;;;;;;;;;;;;;15.26;52.56;101079.16;5027909;28;20393;-73
2022/09/23 12:28:37;;;;;;;;;;;;;;;15.33;50.44;101082.41;4991580;28;19917;-73
2022/09/23 12:31:07;;;;;;;;;;;;;;;15.28;52.69;101084.31;5031641;28;20427;-73
2022/09/23 12:33:32;;;;;;;;;;;;;;;15.28;51.71;101079.94;5027120;28;19964;-73
2022/09/23 12:36:05;;;;;;;;;;;;;;;15.39;52.01;101083.03;5026978;28;19953;-73
2022/09/23 12:38:33;;;;;;;;;;;;;;;15.31;54.35;101078.97;5026905;28;19921;-73
2022/09/23 12:40:59;;;;;;;;;;;;;;;15.32;53.93;101078.06;5052083;28;19924;-73
2022/09/23 12:43:31;;;;;;;;;;;;;;;15.29;54.93;101079.03;5035157;28;19931;-73
2022/09/23 12:46:26;;;;;;;;;;;;;;;15.37;52.14;101081.38;5036251;28;19975;-73
2022/09/23 12:48:58;;;;;;;;;;;;;;;15.31;53.99;101079.81;5016682;28;19928;-73
2022/09/23 12:51:25;;;;;;;;;;;;;;;15.38;53.05;101072.63;5039821;28;19990;-73
2022/09/23 12:53:54;;;;;;;;;;;;;;;15.35;56.60;101077.97;5054732;28;19916;-74